Time;durP1;ratioP1;P1;durP2;ratioP2;P2;SDS_P1;SDS_P2;PMS_P1;PMS_P2;Temp;Humidity;BMP_temperature;BMP_pressure;BME280_temperature;BME280_humidity;BME280_pressure;Samples;Min_cycle;Max_cycle;Signal;HPM_P1;HPM_P2
2023/02/08 00:01:08;;;;;;;9.32;7.40;;;;;;;;;;5076671;28;20204;-86
2023/02/08 00:03:36;;;;;;;8.23;7.38;;;;;;;;;;5075447;28;20217;-87
2023/02/08 00:06:04;;;;;;;7.95;6.38;;;;;;;;;;5076611;28;20553;-86
2023/02/08 00:08:32;;;;;;;10.27;7.53;;;;;;;;;;5076316;28;20739;-85
2023/02/08 00:10:59;;;;;;;7.63;6.82;;;;;;;;;;5076930;28;20616;-85
2023/02/08 00:13:27;;;;;;;9.20;6.72;;;;;;;;;;5076816;28;20302;-87
2023/02/08 00:15:56;;;;;;;14.05;9.43;;;;;;;;;;5077391;28;20638;-86
2023/02/08 00:18:24;;;;;;;9.65;7.45;;;;;;;;;;5077196;28;20231;-86
2023/02/08 00:20:52;;;;;;;8.85;7.90;;;;;;;;;;5075607;28;20708;-84
2023/02/08 00:23:19;;;;;;;8.80;7.90;;;;;;;;;;5076348;28;20862;-86
2023/02/08 00:25:47;;;;;;;9.43;7.55;;;;;;;;;;5076772;28;20635;-86
2023/02/08 00:28:16;;;;;;;10.65;9.25;;;;;;;;;;5076705;28;20243;-86
2023/02/08 00:30:44;;;;;;;8.32;7.53;;;;;;;;;;5077094;28;20216;-87
2023/02/08 00:33:13;;;;;;;10.75;8.30;;;;;;;;;;5076861;28;20283;-87
2023/02/08 00:35:41;;;;;;;8.90;6.63;;;;;;;;;;5076324;28;20304;-86
2023/02/08 00:38:08;;;;;;;7.63;6.15;;;;;;;;;;5075574;28;20197;-83
2023/02/08 00:40:36;;;;;;;9.30;5.65;;;;;;;;;;5075489;28;20240;-86
2023/02/08 00:43:04;;;;;;;8.82;7.07;;;;;;;;;;5076130;28;20220;-87
2023/02/08 00:45:33;;;;;;;8.63;5.40;;;;;;;;;;5076332;28;20209;-87
2023/02/08 00:48:01;;;;;;;9.55;6.47;;;;;;;;;;5076456;28;20270;-84
2023/02/08 00:50:29;;;;;;;8.32;6.50;;;;;;;;;;5076083;28;20220;-85
2023/02/08 00:52:59;;;;;;;6.97;6.25;;;;;;;;;;5075512;28;20256;-87
2023/02/08 00:55:26;;;;;;;7.43;6.05;;;;;;;;;;5076149;28;20200;-85
2023/02/08 00:57:54;;;;;;;9.85;7.47;;;;;;;;;;5076416;28;20308;-86
2023/02/08 01:00:22;;;;;;;8.95;7.32;;;;;;;;;;5075910;28;20235;-86
2023/02/08 01:02:49;;;;;;;7.07;5.97;;;;;;;;;;5076997;28;20610;-87
2023/02/08 01:05:17;;;;;;;8.40;6.65;;;;;;;;;;5078751;28;20239;-85
2023/02/08 01:07:46;;;;;;;7.68;6.32;;;;;;;;;;5078823;28;20221;-84
2023/02/08 01:10:13;;;;;;;7.60;6.15;;;;;;;;;;5078590;28;20649;-87
2023/02/08 01:12:41;;;;;;;6.28;5.65;;;;;;;;;;5079149;28;20279;-86
2023/02/08 01:15:09;;;;;;;7.43;6.53;;;;;;;;;;5079103;28;20242;-87
2023/02/08 01:17:37;;;;;;;9.77;6.72;;;;;;;;;;5078551;28;20641;-84
2023/02/08 01:20:05;;;;;;;9.32;6.80;;;;;;;;;;5079898;28;20228;-87
2023/02/08 01:22:32;;;;;;;8.70;7.10;;;;;;;;;;5100575;22;20324;-85
2023/02/08 01:25:01;;;;;;;9.38;7.57;;;;;;;;;;5073742;28;20211;-84
2023/02/08 01:27:29;;;;;;;9.43;6.07;;;;;;;;;;5073978;28;20805;-85
2023/02/08 01:29:56;;;;;;;7.10;6.40;;;;;;;;;;5073851;28;20648;-85
2023/02/08 01:32:24;;;;;;;7.47;5.35;;;;;;;;;;5073775;28;20227;-85
2023/02/08 01:34:51;;;;;;;4.97;4.13;;;;;;;;;;5073850;28;20283;-85
2023/02/08 01:37:19;;;;;;;5.40;4.53;;;;;;;;;;5073746;28;20292;-86
2023/02/08 01:39:46;;;;;;;7.55;5.28;;;;;;;;;;5073584;28;20636;-85
2023/02/08 01:42:17;;;;;;;6.57;5.50;;;;;;;;;;5073944;28;20228;-85
2023/02/08 01:45:26;;;;;;;9.82;5.38;;;;;;;;;;5073723;28;20190;-85
2023/02/08 01:48:00;;;;;;;7.75;4.68;;;;;;;;;;5070781;28;20629;-85
2023/02/08 01:50:31;;;;;;;10.02;5.65;;;;;;;;;;5073778;28;20185;-85
2023/02/08 01:52:59;;;;;;;6.82;5.57;;;;;;;;;;5073376;28;20296;-85
2023/02/08 01:55:30;;;;;;;6.85;5.63;;;;;;;;;;5073493;28;20240;-85
2023/02/08 01:58:02;;;;;;;6.07;5.15;;;;;;;;;;5073602;28;20576;-84
2023/02/08 02:00:30;;;;;;;7.88;6.00;;;;;;;;;;5073273;28;20186;-85
2023/02/08 02:02:59;;;;;;;9.32;6.03;;;;;;;;;;5073086;28;20255;-85
2023/02/08 02:05:30;;;;;;;9.27;5.93;;;;;;;;;;5073229;28;20681;-85
2023/02/08 02:07:58;;;;;;;8.98;6.75;;;;;;;;;;5073480;28;20320;-85
2023/02/08 02:10:31;;;;;;;8.93;5.97;;;;;;;;;;5073751;28;20756;-86
2023/02/08 02:13:04;;;;;;;7.57;5.85;;;;;;;;;;5072744;28;20224;-84
2023/02/08 02:15:32;;;;;;;7.13;5.97;;;;;;;;;;5072905;28;20189;-85
2023/02/08 02:18:00;;;;;;;7.22;5.97;;;;;;;;;;5072745;28;20250;-85
2023/02/08 02:20:51;;;;;;;9.05;7.28;;;;;;;;;;5073230;28;20641;-85
2023/02/08 02:23:48;;;;;;;8.43;6.47;;;;;;;;;;5072753;28;20239;-85
2023/02/08 02:26:52;;;;;;;8.32;6.88;;;;;;;;;;5072845;28;20193;-85
2023/02/08 02:30:11;;;;;;;7.35;5.78;;;;;;;;;;5067199;28;20224;-85
2023/02/08 02:32:51;;;;;;;8.65;6.40;;;;;;;;;;5072344;28;20223;-84
2023/02/08 02:35:25;;;;;;;7.97;6.35;;;;;;;;;;5072587;28;20545;-84
2023/02/08 02:38:07;;;;;;;8.02;6.03;;;;;;;;;;5072307;28;20181;-85
2023/02/08 02:40:41;;;;;;;10.48;6.55;;;;;;;;;;5072428;28;20188;-85
2023/02/08 02:46:05;;;;;;;9.07;6.75;;;;;;;;;;5072262;28;20189;-85
2023/02/08 02:48:41;;;;;;;10.70;6.75;;;;;;;;;;5072162;28;20669;-84
2023/02/08 02:51:12;;;;;;;8.30;6.32;;;;;;;;;;5072481;28;20189;-86
2023/02/08 02:53:48;;;;;;;8.55;6.18;;;;;;;;;;5072580;28;20279;-85
2023/02/08 02:56:19;;;;;;;8.18;7.22;;;;;;;;;;5072442;28;20193;-85
2023/02/08 02:58:47;;;;;;;9.20;6.53;;;;;;;;;;5072228;28;20197;-84
2023/02/08 03:01:15;;;;;;;8.40;7.53;;;;;;;;;;5072147;28;20203;-85
2023/02/08 03:03:44;;;;;;;7.95;6.03;;;;;;;;;;5071755;28;20292;-85
2023/02/08 03:06:14;;;;;;;12.40;7.03;;;;;;;;;;5071842;28;20232;-83
2023/02/08 03:09:09;;;;;;;8.90;6.72;;;;;;;;;;5072093;28;20859;-84
2023/02/08 03:11:37;;;;;;;9.48;7.20;;;;;;;;;;5071865;28;20304;-85
2023/02/08 03:14:30;;;;;;;9.07;6.60;;;;;;;;;;5071877;28;20211;-85
2023/02/08 03:17:17;;;;;;;10.65;9.00;;;;;;;;;;5072182;28;20201;-84
2023/02/08 03:19:53;;;;;;;9.45;7.50;;;;;;;;;;5072156;28;20268;-86
2023/02/08 03:22:24;;;;;;;9.60;8.13;;;;;;;;;;5071587;28;20224;-85
2023/02/08 03:24:55;;;;;;;9.25;8.23;;;;;;;;;;5071715;28;20211;-85
2023/02/08 03:27:30;;;;;;;9.68;7.55;;;;;;;;;;5071496;28;20299;-85
2023/02/08 03:30:02;;;;;;;8.23;6.53;;;;;;;;;;5072355;28;20676;-85
2023/02/08 03:32:38;;;;;;;8.43;5.78;;;;;;;;;;5072061;28;20780;-86
2023/02/08 03:35:11;;;;;;;6.88;6.18;;;;;;;;;;5072091;28;20196;-85
2023/02/08 03:37:42;;;;;;;8.52;7.13;;;;;;;;;;5071683;28;20717;-84
2023/02/08 03:40:15;;;;;;;9.70;7.68;;;;;;;;;;5071388;28;20288;-86
2023/02/08 03:42:44;;;;;;;9.10;6.60;;;;;;;;;;5071718;28;20296;-85
2023/02/08 03:45:15;;;;;;;8.80;5.95;;;;;;;;;;5071894;28;20202;-85
2023/02/08 03:47:45;;;;;;;7.90;5.97;;;;;;;;;;5071793;28;20292;-85
2023/02/08 03:50:17;;;;;;;6.40;5.53;;;;;;;;;;5071462;28;20239;-84
2023/02/08 03:52:45;;;;;;;7.30;5.93;;;;;;;;;;5071313;28;20225;-85
2023/02/08 03:55:15;;;;;;;7.57;5.85;;;;;;;;;;5071415;28;20196;-84
2023/02/08 03:57:48;;;;;;;7.53;6.03;;;;;;;;;;5071916;28;20205;-84
2023/02/08 04:00:18;;;;;;;9.35;6.78;;;;;;;;;;5071979;28;20626;-85
2023/02/08 04:02:52;;;;;;;11.50;8.15;;;;;;;;;;5071736;28;20224;-84
2023/02/08 04:05:22;;;;;;;10.32;7.20;;;;;;;;;;5071865;28;20270;-85
2023/02/08 04:07:50;;;;;;;10.23;8.18;;;;;;;;;;5072059;28;20214;-85
2023/02/08 04:10:17;;;;;;;9.00;7.53;;;;;;;;;;5071333;28;20223;-85
2023/02/08 04:12:46;;;;;;;11.73;8.00;;;;;;;;;;5071681;28;20308;-83
2023/02/08 04:15:13;;;;;;;9.18;7.50;;;;;;;;;;5070967;28;20203;-85
2023/02/08 04:17:41;;;;;;;11.10;8.18;;;;;;;;;;5071229;28;20701;-85
2023/02/08 04:20:09;;;;;;;11.95;8.88;;;;;;;;;;5071190;28;20207;-84
2023/02/08 04:22:38;;;;;;;13.02;8.95;;;;;;;;;;5070762;28;20228;-86
2023/02/08 04:25:06;;;;;;;11.80;8.68;;;;;;;;;;5071060;28;20197;-85
2023/02/08 04:27:34;;;;;;;8.55;7.00;;;;;;;;;;5070667;28;20209;-85
2023/02/08 04:30:01;;;;;;;10.00;8.27;;;;;;;;;;5070803;28;20315;-83
2023/02/08 04:32:29;;;;;;;10.32;7.45;;;;;;;;;;5071211;28;20336;-86
2023/02/08 04:34:56;;;;;;;7.82;6.13;;;;;;;;;;5071157;28;20291;-85
2023/02/08 04:37:24;;;;;;;10.07;8.70;;;;;;;;;;5072122;28;20197;-84
2023/02/08 04:39:53;;;;;;;14.75;8.80;;;;;;;;;;5074762;28;20213;-85
2023/02/08 04:42:20;;;;;;;10.25;8.05;;;;;;;;;;5074484;28;20653;-85
2023/02/08 04:44:48;;;;;;;11.13;8.00;;;;;;;;;;5074391;28;20201;-85
2023/02/08 04:47:19;;;;;;;10.18;8.20;;;;;;;;;;5074342;28;20276;-84
2023/02/08 04:49:46;;;;;;;40.03;8.32;;;;;;;;;;5075142;28;20234;-85
2023/02/08 04:52:14;;;;;;;9.32;7.35;;;;;;;;;;5074709;28;20765;-85
2023/02/08 04:54:41;;;;;;;10.23;7.97;;;;;;;;;;5074828;28;20205;-85
2023/02/08 04:57:13;;;;;;;11.18;7.40;;;;;;;;;;5074755;28;20295;-85
2023/02/08 04:59:41;;;;;;;10.05;7.32;;;;;;;;;;5074906;28;20194;-85
2023/02/08 05:02:08;;;;;;;11.55;8.18;;;;;;;;;;5074580;28;20785;-85
2023/02/08 05:04:36;;;;;;;8.35;7.05;;;;;;;;;;5074591;28;20205;-85
2023/02/08 05:07:03;;;;;;;8.63;7.07;;;;;;;;;;5074296;28;20275;-84
2023/02/08 05:09:31;;;;;;;8.68;6.70;;;;;;;;;;5073953;28;20311;-84
2023/02/08 05:11:58;;;;;;;7.35;6.18;;;;;;;;;;5074571;28;20446;-85
2023/02/08 05:14:27;;;;;;;8.75;7.30;;;;;;;;;;5074002;28;20204;-85
2023/02/08 05:16:55;;;;;;;6.97;6.28;;;;;;;;;;5074081;28;20292;-84
2023/02/08 05:19:22;;;;;;;7.43;5.30;;;;;;;;;;5073964;28;20677;-85
2023/02/08 05:21:50;;;;;;;5.93;4.50;;;;;;;;;;5073252;28;20317;-85
2023/02/08 05:24:17;;;;;;;7.57;5.57;;;;;;;;;;5074096;28;20232;-84
2023/02/08 05:26:45;;;;;;;8.55;6.80;;;;;;;;;;5073937;28;20292;-84
2023/02/08 05:29:12;;;;;;;7.25;5.95;;;;;;;;;;5073677;28;20624;-85
2023/02/08 05:31:41;;;;;;;8.35;5.95;;;;;;;;;;5073644;28;20253;-85
2023/02/08 05:34:09;;;;;;;8.77;7.20;;;;;;;;;;5074287;28;20288;-85
2023/02/08 05:36:36;;;;;;;7.82;5.82;;;;;;;;;;5073484;28;20236;-85
2023/02/08 05:39:04;;;;;;;8.95;6.03;;;;;;;;;;5073609;28;20578;-85
2023/02/08 05:41:31;;;;;;;8.70;6.97;;;;;;;;;;5073436;28;20351;-84
2023/02/08 05:43:59;;;;;;;10.90;7.20;;;;;;;;;;5073758;28;20561;-85
2023/02/08 05:46:27;;;;;;;10.88;6.93;;;;;;;;;;5073385;28;20315;-85
2023/02/08 05:48:56;;;;;;;10.05;7.85;;;;;;;;;;5072687;28;20201;-85
2023/02/08 05:51:23;;;;;;;11.50;7.85;;;;;;;;;;5078316;28;20924;-86
2023/02/08 05:53:51;;;;;;;14.40;9.10;;;;;;;;;;5073405;28;20674;-85
2023/02/08 05:56:18;;;;;;;9.90;8.30;;;;;;;;;;5073745;28;20211;-85
2023/02/08 05:58:46;;;;;;;11.77;7.93;;;;;;;;;;5073337;28;20223;-84
2023/02/08 06:01:14;;;;;;;8.70;7.03;;;;;;;;;;5073172;28;20223;-88
2023/02/08 06:03:41;;;;;;;8.38;7.10;;;;;;;;;;5073346;28;20215;-85
2023/02/08 06:06:10;;;;;;;11.43;7.75;;;;;;;;;;5073329;28;20284;-85
2023/02/08 06:08:38;;;;;;;13.48;9.18;;;;;;;;;;5073286;28;20197;-86
2023/02/08 06:11:06;;;;;;;13.93;8.25;;;;;;;;;;5072878;28;20212;-86
2023/02/08 06:13:34;;;;;;;8.55;6.75;;;;;;;;;;5072931;28;20219;-86
2023/02/08 06:16:01;;;;;;;11.23;8.18;;;;;;;;;;5073376;28;20681;-86
2023/02/08 06:18:29;;;;;;;8.45;6.95;;;;;;;;;;5073009;28;20640;-85
2023/02/08 06:20:56;;;;;;;11.65;8.35;;;;;;;;;;5072968;28;20647;-85
2023/02/08 06:23:25;;;;;;;11.40;8.35;;;;;;;;;;5072560;28;20580;-86
2023/02/08 06:25:53;;;;;;;10.38;7.65;;;;;;;;;;5073286;28;20288;-85
2023/02/08 06:28:20;;;;;;;11.55;8.32;;;;;;;;;;5073033;28;20710;-86
2023/02/08 06:30:49;;;;;;;9.80;7.55;;;;;;;;;;5072631;28;20307;-87
2023/02/08 06:33:17;;;;;;;11.65;8.30;;;;;;;;;;5072286;28;20700;-85
2023/02/08 06:35:46;;;;;;;11.02;8.60;;;;;;;;;;5072678;28;20197;-84
2023/02/08 06:38:14;;;;;;;10.07;8.38;;;;;;;;;;5072951;28;20208;-85
2023/02/08 06:40:42;;;;;;;8.98;8.05;;;;;;;;;;5072541;28;20219;-85
2023/02/08 06:43:10;;;;;;;10.50;7.85;;;;;;;;;;5072799;28;20237;-86
2023/02/08 06:45:39;;;;;;;9.43;6.68;;;;;;;;;;5071888;28;20243;-85
2023/02/08 06:48:06;;;;;;;11.73;7.65;;;;;;;;;;5072126;28;20569;-85
2023/02/08 06:50:34;;;;;;;11.57;8.43;;;;;;;;;;5072411;28;20585;-86
2023/02/08 06:53:02;;;;;;;9.95;8.43;;;;;;;;;;5072270;28;20227;-85
2023/02/08 06:55:29;;;;;;;9.70;6.78;;;;;;;;;;5072195;28;20207;-86
2023/02/08 06:57:58;;;;;;;9.45;7.25;;;;;;;;;;5072202;28;20288;-85
2023/02/08 07:00:26;;;;;;;9.30;7.13;;;;;;;;;;5071266;28;20208;-85
2023/02/08 07:02:53;;;;;;;8.50;6.93;;;;;;;;;;5072088;28;20316;-85
2023/02/08 07:05:20;;;;;;;11.57;8.27;;;;;;;;;;5071687;28;20300;-86
2023/02/08 07:07:48;;;;;;;8.65;6.70;;;;;;;;;;5071418;28;20387;-85
2023/02/08 07:10:16;;;;;;;9.90;7.63;;;;;;;;;;5071713;28;20201;-85
2023/02/08 07:12:43;;;;;;;5.45;4.95;;;;;;;;;;5071489;28;20239;-85
2023/02/08 07:15:13;;;;;;;8.95;6.43;;;;;;;;;;5071435;28;20201;-86
2023/02/08 07:17:40;;;;;;;5.10;4.60;;;;;;;;;;5071995;28;20258;-84
2023/02/08 07:20:10;;;;;;;6.95;5.13;;;;;;;;;;5071921;28;20519;-86
2023/02/08 07:22:37;;;;;;;6.90;5.40;;;;;;;;;;5071858;28;20236;-86
2023/02/08 07:25:06;;;;;;;6.88;5.45;;;;;;;;;;5071476;28;20211;-86
2023/02/08 07:27:33;;;;;;;4.88;4.38;;;;;;;;;;5071865;28;20204;-87
2023/02/08 07:30:01;;;;;;;6.28;5.68;;;;;;;;;;5071211;28;20749;-87
2023/02/08 07:32:30;;;;;;;5.25;4.75;;;;;;;;;;5071765;28;20232;-86
2023/02/08 07:34:57;;;;;;;4.32;3.72;;;;;;;;;;5071376;28;20304;-86
2023/02/08 07:37:26;;;;;;;5.13;3.53;;;;;;;;;;5071586;28;20288;-86
2023/02/08 07:39:54;;;;;;;6.18;4.75;;;;;;;;;;5070898;28;20204;-87
2023/02/08 07:42:21;;;;;;;7.25;4.70;;;;;;;;;;5071885;28;20216;-87
2023/02/08 07:44:49;;;;;;;9.15;5.97;;;;;;;;;;5071732;28;20588;-86
2023/02/08 07:47:17;;;;;;;7.28;5.35;;;;;;;;;;5071237;28;20212;-86
2023/02/08 07:49:45;;;;;;;5.80;4.78;;;;;;;;;;5070776;28;20200;-87
2023/02/08 07:52:13;;;;;;;8.45;6.75;;;;;;;;;;5070888;28;20281;-86
2023/02/08 07:54:40;;;;;;;10.35;8.07;;;;;;;;;;5071501;28;20300;-86
2023/02/08 07:57:08;;;;;;;9.52;7.10;;;;;;;;;;5070928;28;20287;-87
2023/02/08 07:59:35;;;;;;;6.30;5.13;;;;;;;;;;5071136;28;20243;-86
2023/02/08 08:02:03;;;;;;;9.38;8.20;;;;;;;;;;5071546;28;20224;-86
2023/02/08 08:04:30;;;;;;;10.57;8.35;;;;;;;;;;5071405;28;20296;-87
2023/02/08 08:06:59;;;;;;;11.90;9.35;;;;;;;;;;5071563;28;20632;-86
2023/02/08 08:09:27;;;;;;;11.73;8.77;;;;;;;;;;5070976;28;20273;-86
2023/02/08 08:11:54;;;;;;;14.15;9.57;;;;;;;;;;5072984;28;20324;-87
2023/02/08 08:14:22;;;;;;;14.30;9.70;;;;;;;;;;5075178;28;20200;-86
2023/02/08 08:16:50;;;;;;;18.30;11.60;;;;;;;;;;5074595;28;20729;-86
2023/02/08 08:19:17;;;;;;;15.82;11.13;;;;;;;;;;5074749;28;20223;-87
2023/02/08 08:21:44;;;;;;;14.68;10.52;;;;;;;;;;5074249;28;20324;-87
2023/02/08 08:24:13;;;;;;;13.57;11.10;;;;;;;;;;5075025;28;20224;-86
2023/02/08 08:26:41;;;;;;;11.85;9.60;;;;;;;;;;5076881;28;20637;-84
2023/02/08 08:29:08;;;;;;;11.57;8.93;;;;;;;;;;5076766;28;20295;-85
2023/02/08 08:31:37;;;;;;;10.63;6.93;;;;;;;;;;5075946;28;20741;-84
2023/02/08 08:34:04;;;;;;;10.20;7.20;;;;;;;;;;5077109;28;20213;-84
2023/02/08 08:36:32;;;;;;;10.85;9.00;;;;;;;;;;5076535;28;20292;-85
2023/02/08 08:38:59;;;;;;;12.13;10.13;;;;;;;;;;5076411;28;20297;-84
2023/02/08 08:41:28;;;;;;;9.07;8.18;;;;;;;;;;5076086;28;20208;-84
2023/02/08 08:43:56;;;;;;;10.35;8.75;;;;;;;;;;5076463;28;20232;-84
2023/02/08 08:46:23;;;;;;;11.23;8.02;;;;;;;;;;5075863;28;20292;-84
2023/02/08 08:48:51;;;;;;;12.80;9.63;;;;;;;;;;5075867;28;20221;-85
2023/02/08 08:51:19;;;;;;;9.60;7.72;;;;;;;;;;5075922;28;20204;-86
2023/02/08 08:53:46;;;;;;;11.27;8.45;;;;;;;;;;5075810;28;20209;-84
2023/02/08 08:56:14;;;;;;;11.30;8.80;;;;;;;;;;5075569;28;20287;-85
2023/02/08 08:58:43;;;;;;;13.15;10.40;;;;;;;;;;5074894;28;20244;-85
2023/02/08 09:01:12;;;;;;;9.95;8.45;;;;;;;;;;5075294;28;20570;-84
2023/02/08 09:03:39;;;;;;;10.63;8.15;;;;;;;;;;5075352;28;20654;-85
2023/02/08 09:06:07;;;;;;;9.45;7.38;;;;;;;;;;5074072;28;20240;-84
2023/02/08 09:08:34;;;;;;;8.43;7.20;;;;;;;;;;5073998;28;20670;-85
2023/02/08 09:11:07;;;;;;;10.10;6.75;;;;;;;;;;5075509;28;20284;-84
2023/02/08 09:13:34;;;;;;;10.23;8.05;;;;;;;;;;5074695;28;20228;-84
2023/02/08 09:16:08;;;;;;;11.88;9.57;;;;;;;;;;5075035;28;20197;-85
2023/02/08 09:18:36;;;;;;;10.10;8.27;;;;;;;;;;5074707;28;20674;-84
2023/02/08 09:21:07;;;;;;;10.40;8.68;;;;;;;;;;5074828;28;20246;-84
2023/02/08 09:23:35;;;;;;;10.98;9.48;;;;;;;;;;5073688;28;20233;-85
2023/02/08 09:26:03;;;;;;;9.93;8.57;;;;;;;;;;5074542;28;20279;-84
2023/02/08 09:28:31;;;;;;;12.70;11.10;;;;;;;;;;5073798;28;20207;-84
2023/02/08 09:31:00;;;;;;;12.00;10.27;;;;;;;;;;5074415;28;20207;-84
2023/02/08 09:33:29;;;;;;;13.45;10.10;;;;;;;;;;5074152;28;20402;-85
2023/02/08 09:35:56;;;;;;;11.00;9.80;;;;;;;;;;5074198;28;20292;-85
2023/02/08 09:38:24;;;;;;;17.35;12.07;;;;;;;;;;5073624;28;20291;-86
2023/02/08 09:41:01;;;;;;;10.85;9.68;;;;;;;;;;5073699;28;20236;-84
2023/02/08 09:43:34;;;;;;;11.25;9.35;;;;;;;;;;5073918;28;20307;-85
2023/02/08 09:46:05;;;;;;;10.75;8.50;;;;;;;;;;5073921;28;20205;-85
2023/02/08 09:48:36;;;;;;;13.75;10.90;;;;;;;;;;5073655;28;20287;-85
2023/02/08 09:51:09;;;;;;;13.85;11.45;;;;;;;;;;5074043;28;20229;-85
2023/02/08 09:53:39;;;;;;;13.90;10.90;;;;;;;;;;5073372;28;20233;-85
2023/02/08 09:56:11;;;;;;;15.48;11.68;;;;;;;;;;5074932;28;20673;-84
2023/02/08 09:58:41;;;;;;;17.08;12.25;;;;;;;;;;5073342;28;20205;-85
2023/02/08 10:01:17;;;;;;;12.73;10.38;;;;;;;;;;5074246;28;20196;-85
2023/02/08 10:03:47;;;;;;;14.73;10.35;;;;;;;;;;5073785;28;20199;-85
2023/02/08 10:06:18;;;;;;;12.88;10.50;;;;;;;;;;5073900;28;20312;-84
2023/02/08 10:08:49;;;;;;;12.73;10.40;;;;;;;;;;5073252;28;20296;-85
2023/02/08 10:11:40;;;;;;;14.00;11.43;;;;;;;;;;5073254;28;20215;-85
2023/02/08 10:14:39;;;;;;;15.80;11.82;;;;;;;;;;5073260;28;20315;-85
2023/02/08 10:17:29;;;;;;;13.68;10.80;;;;;;;;;;5073710;28;20287;-86
2023/02/08 10:20:08;;;;;;;13.82;10.23;;;;;;;;;;5073169;28;20644;-85
2023/02/08 10:22:44;;;;;;;11.45;10.25;;;;;;;;;;5073551;28;20319;-85
2023/02/08 10:25:35;;;;;;;13.15;10.88;;;;;;;;;;5073648;28;20691;-85
2023/02/08 10:28:30;;;;;;;12.85;10.60;;;;;;;;;;5072659;28;20288;-85
2023/02/08 10:31:05;;;;;;;13.75;10.25;;;;;;;;;;5072372;28;20201;-85
2023/02/08 10:33:37;;;;;;;15.27;11.32;;;;;;;;;;5072538;28;20685;-85
2023/02/08 10:36:14;;;;;;;12.52;9.93;;;;;;;;;;5072532;28;20215;-85
2023/02/08 10:38:42;;;;;;;13.73;10.55;;;;;;;;;;5072706;28;20231;-85
2023/02/08 10:41:10;;;;;;;16.88;12.20;;;;;;;;;;5072851;28;20193;-85
2023/02/08 10:43:42;;;;;;;14.18;10.20;;;;;;;;;;5073110;28;20201;-85
2023/02/08 10:46:16;;;;;;;12.35;9.48;;;;;;;;;;5073022;28;20221;-85
2023/02/08 10:48:58;;;;;;;14.18;9.98;;;;;;;;;;5072612;28;20190;-85
2023/02/08 10:51:28;;;;;;;14.07;11.30;;;;;;;;;;5072584;28;20614;-85
2023/02/08 10:53:56;;;;;;;12.52;11.00;;;;;;;;;;5072360;28;20231;-85
2023/02/08 10:56:45;;;;;;;13.10;10.05;;;;;;;;;;5071970;28;20291;-85
2023/02/08 10:59:20;;;;;;;12.57;10.23;;;;;;;;;;5072069;28;20197;-85
2023/02/08 11:01:49;;;;;;;12.73;10.35;;;;;;;;;;5072162;28;20243;-85
2023/02/08 11:04:17;;;;;;;13.68;10.45;;;;;;;;;;5072156;28;20200;-85
2023/02/08 11:06:48;;;;;;;11.32;9.75;;;;;;;;;;5072266;28;20611;-85
2023/02/08 11:09:25;;;;;;;10.30;9.02;;;;;;;;;;5071834;28;20205;-85
2023/02/08 11:11:53;;;;;;;13.88;9.88;;;;;;;;;;5071909;28;20311;-86
2023/02/08 11:14:30;;;;;;;10.85;9.55;;;;;;;;;;5071861;28;20220;-85
2023/02/08 11:16:59;;;;;;;13.95;9.95;;;;;;;;;;5072637;28;20627;-85
2023/02/08 11:19:38;;;;;;;12.90;9.25;;;;;;;;;;5071440;28;20634;-85
2023/02/08 11:22:07;;;;;;;9.20;8.20;;;;;;;;;;5071917;28;20712;-85
2023/02/08 11:24:39;;;;;;;13.43;9.80;;;;;;;;;;5072079;28;20297;-85
2023/02/08 11:27:17;;;;;;;14.50;10.93;;;;;;;;;;5072023;28;20330;-85
2023/02/08 11:29:45;;;;;;;10.18;8.82;;;;;;;;;;5070016;28;20208;-85
2023/02/08 11:32:18;;;;;;;10.45;8.20;;;;;;;;;;5071965;28;20270;-84
2023/02/08 11:34:47;;;;;;;10.35;8.60;;;;;;;;;;5071166;28;20224;-85
2023/02/08 11:37:20;;;;;;;12.30;9.13;;;;;;;;;;5071953;28;20254;-85
2023/02/08 11:39:53;;;;;;;10.10;7.40;;;;;;;;;;5076304;28;20204;-85
2023/02/08 11:42:22;;;;;;;7.82;6.82;;;;;;;;;;5072965;28;20224;-85
2023/02/08 11:44:50;;;;;;;6.63;5.95;;;;;;;;;;5072822;28;20291;-85
2023/02/08 11:47:23;;;;;;;6.30;5.10;;;;;;;;;;5072875;28;20193;-84
2023/02/08 11:49:54;;;;;;;5.55;4.90;;;;;;;;;;5071635;28;20251;-85
2023/02/08 11:52:25;;;;;;;5.88;5.30;;;;;;;;;;5072355;28;20213;-85
2023/02/08 11:54:53;;;;;;;8.48;6.03;;;;;;;;;;5072541;28;20252;-85
2023/02/08 11:57:23;;;;;;;7.07;5.55;;;;;;;;;;5072540;28;20212;-85
2023/02/08 12:00:12;;;;;;;7.03;5.78;;;;;;;;;;5071572;28;20197;-85
2023/02/08 12:02:42;;;;;;;5.75;5.18;;;;;;;;;;5071944;28;20308;-85
2023/02/08 12:05:14;;;;;;;5.55;5.00;;;;;;;;;;5072558;28;20213;-85
2023/02/08 12:07:54;;;;;;;6.32;5.32;;;;;;;;;;5072726;28;20209;-85
2023/02/08 12:10:50;;;;;;;8.30;6.47;;;;;;;;;;5072617;28;20231;-85
2023/02/08 12:13:49;;;;;;;6.55;5.95;;;;;;;;;;5073012;28;20303;-85
2023/02/08 12:16:37;;;;;;;8.45;6.88;;;;;;;;;;5070274;28;20288;-85
2023/02/08 12:19:44;;;;;;;6.00;5.35;;;;;;;;;;5073185;28;20579;-85
2023/02/08 12:22:16;;;;;;;5.40;4.90;;;;;;;;;;5072883;28;20773;-85
2023/02/08 12:24:49;;;;;;;7.03;6.30;;;;;;;;;;5073278;28;20258;-85
2023/02/08 12:27:33;;;;;;;8.85;7.13;;;;;;;;;;5072784;28;20275;-85
2023/02/08 12:30:08;;;;;;;7.70;5.68;;;;;;;;;;5072177;28;20232;-84
2023/02/08 12:33:10;;;;;;;6.13;5.50;;;;;;;;;;5073211;28;20234;-85
2023/02/08 12:36:12;;;;;;;6.70;5.97;;;;;;;;;;5054900;28;20292;-84
2023/02/08 12:42:14;;;;;;;4.97;4.47;;;;;;;;;;5053674;28;20267;-85
2023/02/08 12:45:00;;;;;;;4.35;3.90;;;;;;;;;;5053609;28;20269;-85
2023/02/08 12:47:45;;;;;;;5.38;4.13;;;;;;;;;;5053088;28;20229;-85
2023/02/08 12:50:19;;;;;;;6.50;4.72;;;;;;;;;;5052512;28;20253;-85
2023/02/08 12:52:50;;;;;;;5.90;5.10;;;;;;;;;;5053072;28;20308;-84
2023/02/08 12:55:21;;;;;;;7.00;5.22;;;;;;;;;;5052794;28;20232;-85
2023/02/08 12:57:54;;;;;;;8.30;5.25;;;;;;;;;;5053272;28;20178;-85
2023/02/08 13:00:25;;;;;;;5.35;4.50;;;;;;;;;;5056299;28;20207;-85
2023/02/08 13:03:02;;;;;;;6.97;5.43;;;;;;;;;;5056890;28;20281;-86
2023/02/08 13:05:33;;;;;;;4.43;3.65;;;;;;;;;;5067920;28;20228;-85
2023/02/08 13:08:08;;;;;;;4.18;3.72;;;;;;;;;;5075767;28;20213;-85
2023/02/08 13:10:39;;;;;;;4.97;4.00;;;;;;;;;;5076042;28;20192;-85
2023/02/08 13:13:18;;;;;;;6.47;4.93;;;;;;;;;;5076060;28;20752;-85
2023/02/08 13:15:49;;;;;;;4.90;4.40;;;;;;;;;;5076116;28;20264;-85
2023/02/08 13:18:20;;;;;;;5.70;4.88;;;;;;;;;;5075686;28;20274;-85
2023/02/08 13:20:51;;;;;;;8.07;6.53;;;;;;;;;;5076086;28;20205;-85
2023/02/08 13:23:25;;;;;;;7.65;6.00;;;;;;;;;;5075466;28;20239;-86
2023/02/08 13:25:56;;;;;;;7.72;5.63;;;;;;;;;;5075425;28;20277;-85
2023/02/08 13:28:26;;;;;;;6.85;6.15;;;;;;;;;;5075084;28;20248;-85
2023/02/08 13:31:01;;;;;;;7.47;5.47;;;;;;;;;;5075658;28;20223;-85
2023/02/08 13:33:36;;;;;;;4.47;4.07;;;;;;;;;;5075215;28;20637;-85
2023/02/08 13:36:05;;;;;;;4.60;4.15;;;;;;;;;;5075370;28;20657;-86
2023/02/08 13:38:35;;;;;;;6.30;5.65;;;;;;;;;;5074820;28;20255;-85
2023/02/08 13:41:08;;;;;;;7.43;6.10;;;;;;;;;;5075795;28;20193;-86
2023/02/08 13:43:42;;;;;;;6.28;5.68;;;;;;;;;;5076224;28;20697;-85
2023/02/08 13:46:10;;;;;;;6.03;4.90;;;;;;;;;;5075807;28;20572;-85
2023/02/08 13:48:46;;;;;;;8.27;5.07;;;;;;;;;;5074914;28;20193;-85
2023/02/08 13:51:52;;;;;;;6.93;4.90;;;;;;;;;;5076120;28;20256;-87
2023/02/08 13:54:20;;;;;;;4.80;4.05;;;;;;;;;;5075720;28;20209;-85
2023/02/08 13:57:44;;;;;;;3.67;3.38;;;;;;;;;;5075217;28;20201;-85
2023/02/08 14:00:25;;;;;;;4.50;4.10;;;;;;;;;;5075689;28;20292;-85
2023/02/08 14:03:00;;;;;;;5.13;4.50;;;;;;;;;;5079341;28;20256;-85
2023/02/08 14:05:45;;;;;;;5.05;4.55;;;;;;;;;;5076364;28;20254;-84
2023/02/08 14:08:22;;;;;;;4.60;4.00;;;;;;;;;;5076793;28;20272;-85
2023/02/08 14:11:03;;;;;;;5.35;4.80;;;;;;;;;;5076110;28;20261;-84
2023/02/08 14:13:34;;;;;;;6.50;5.50;;;;;;;;;;5075492;28;20647;-85
2023/02/08 14:16:29;;;;;;;4.75;4.25;;;;;;;;;;5077017;28;20288;-84
2023/02/08 14:18:58;;;;;;;6.43;5.05;;;;;;;;;;5075687;28;20295;-85
2023/02/08 14:21:33;;;;;;;5.75;4.75;;;;;;;;;;5074986;28;20201;-85
2023/02/08 14:24:04;;;;;;;5.25;4.53;;;;;;;;;;5075708;28;20215;-86
2023/02/08 14:26:32;;;;;;;4.88;4.15;;;;;;;;;;5075584;28;20354;-85
2023/02/08 14:29:01;;;;;;;4.47;3.92;;;;;;;;;;5075136;28;20196;-85
2023/02/08 14:31:43;;;;;;;6.18;5.15;;;;;;;;;;5074830;28;20292;-84
2023/02/08 14:34:31;;;;;;;4.53;3.97;;;;;;;;;;5074941;28;20208;-85
2023/02/08 14:37:06;;;;;;;4.50;3.70;;;;;;;;;;5075154;28;20233;-85
2023/02/08 14:39:36;;;;;;;4.97;3.42;;;;;;;;;;5074904;28;20181;-85
2023/02/08 14:42:07;;;;;;;4.10;3.70;;;;;;;;;;5075036;28;20228;-86
2023/02/08 14:45:03;;;;;;;4.88;4.38;;;;;;;;;;5075898;28;20196;-85
2023/02/08 14:48:16;;;;;;;4.93;4.43;;;;;;;;;;5075168;28;20215;-85
2023/02/08 14:51:16;;;;;;;5.93;5.28;;;;;;;;;;5075226;28;20272;-85
2023/02/08 14:53:48;;;;;;;7.05;5.35;;;;;;;;;;5075101;28;20181;-85
2023/02/08 14:56:20;;;;;;;6.25;5.63;;;;;;;;;;5075215;28;20599;-84
2023/02/08 14:58:51;;;;;;;7.25;5.25;;;;;;;;;;5074899;28;20217;-85
2023/02/08 15:01:22;;;;;;;7.30;5.43;;;;;;;;;;5074903;28;20662;-85
2023/02/08 15:03:56;;;;;;;6.13;4.70;;;;;;;;;;5074674;28;20220;-86
2023/02/08 15:07:15;;;;;;;5.97;5.38;;;;;;;;;;5074566;28;20644;-85
2023/02/08 15:09:44;;;;;;;6.50;5.45;;;;;;;;;;5012287;28;20293;-85
2023/02/08 15:12:17;;;;;;;9.73;5.35;;;;;;;;;;5061711;28;20217;-85